Flight Track Log - Related Links

Times and Time Zones

All times are in EDT time to prevent confusion due to time zone crossing. See the RHC9987 flight status page for this flight to view local times or setup timezone preferences in your user account.

Time Position Orientation Groundspeed Altitude Reporting Facility
EDT Latitude Longitude Course Direction KTS MPH feet Rate Location/Type
Tue 08:07:00 AM 25.5689 104.0886 66° East  Level Estimated
Tue 08:08:00 AM 25.6151 104.2050 66° East  Level Estimated
Tue 08:09:00 AM 25.6612 104.3216 66° East  Level Estimated
Tue 08:10:00 AM 25.7072 104.4382 66° East  Level Estimated
Tue 08:11:00 AM 25.7531 104.5549 66° East  Level Estimated
Tue 08:12:00 AM 25.7989 104.6717 66° East  Level Estimated
Tue 08:13:00 AM 25.8447 104.7886 66° East  Level Estimated
Tue 08:14:00 AM 25.8903 104.9056 67° East  Level Estimated
Tue 08:15:00 AM 25.9358 105.0226 67° East  Level Estimated
Tue 08:16:00 AM 25.9813 105.1398 67° East  Level Estimated
Tue 08:17:00 AM 26.0266 105.2570 67° East  Level Estimated
Tue 08:18:00 AM 26.0719 105.3744 67° East  Level Estimated
Tue 08:19:00 AM 26.1170 105.4918 67° East  Level Estimated
Tue 08:20:00 AM 26.1621 105.6093 67° East  Level Estimated
Tue 08:21:00 AM 26.2071 105.7269 67° East  Level Estimated
Tue 08:22:00 AM 26.2520 105.8446 67° East  Level Estimated
Tue 08:23:00 AM 26.2967 105.9624 67° East  Level Estimated
Tue 08:24:00 AM 26.3414 106.0803 67° East  Level Estimated
Tue 08:25:00 AM 26.3860 106.1983 67° East  Level Estimated
Tue 08:26:00 AM 26.4305 106.3163 67° East  Level Estimated
Tue 08:27:00 AM 26.4749 106.4345 67° East  Level Estimated
Tue 08:28:00 AM 26.5192 106.5527 67° East  Level Estimated
Tue 08:29:00 AM 26.5634 106.6711 67° East  Level Estimated
Tue 08:30:00 AM 26.6075 106.7895 67° East  Level Estimated
Tue 08:31:00 AM 26.6515 106.9080 67° East  Level Estimated
Tue 08:32:00 AM 26.6954 107.0266 67° East  Level Estimated
Tue 08:33:00 AM 26.7392 107.1453 68° East  Level Estimated
Tue 08:34:00 AM 26.7829 107.2641 68° East  Level Estimated
Tue 08:35:00 AM 26.8265 107.3830 68° East  Level Estimated
Tue 08:36:00 AM 26.8700 107.5020 68° East  Level Estimated
Tue 08:37:00 AM 26.9134 107.6211 68° East  Level Estimated
Tue 08:38:00 AM 26.9568 107.7402 68° East  Level Estimated
Tue 08:39:00 AM 27.0000 107.8595 68° East  Level Estimated
Tue 08:40:00 AM 27.0431 107.9788 68° East  Level Estimated
Tue 08:41:00 AM 27.0861 108.0983 68° East  Level Estimated
Tue 08:42:00 AM 27.1290 108.2178 68° East  Level Estimated
Tue 08:43:00 AM 27.1718 108.3374 68° East  Level Estimated
Tue 08:44:00 AM 27.2145 108.4571 68° East  Level Estimated
Tue 08:45:00 AM 27.2571 108.5769 68° East  Level Estimated
Tue 08:46:00 AM 27.2996 108.6968 68° East  Level Estimated
Tue 08:47:00 AM 27.3420 108.8168 68° East  Level Estimated
Tue 08:48:00 AM 27.3843 108.9369 68° East  Level Estimated
Tue 08:49:00 AM 27.4265 109.0571 68° East  Level Estimated
Tue 08:50:00 AM 27.4686 109.1773 68° East  Level Estimated
Tue 08:51:00 AM 27.5106 109.2977 69° East  Level Estimated
Tue 08:52:00 AM 27.5524 109.4181 69° East  Level Estimated
Tue 08:53:00 AM 27.5942 109.5386 69° East  Level Estimated
Tue 08:54:00 AM 27.6359 109.6593 69° East  Level Estimated
Tue 08:55:00 AM 27.6775 109.7800 69° East  Level Estimated
Tue 08:56:00 AM 27.7189 109.9008 69° East  Level Estimated
Tue 08:57:00 AM 27.7603 110.0217 69° East  Level Estimated
Tue 08:58:00 AM 27.8015 110.1427 69° East  Level Estimated
Tue 08:59:00 AM 27.8427 110.2638 69° East  Level Estimated
Tue 09:00:00 AM 27.8837 110.3850 69° East  Level Estimated
Tue 09:01:00 AM 27.9247 110.5062 69° East  Level Estimated
Tue 09:02:00 AM 27.9655 110.6276 69° East  Level Estimated
Tue 09:03:00 AM 28.0062 110.7490 69° East  Level Estimated
Tue 09:04:00 AM 28.0468 110.8706 69° East  Level Estimated
Tue 09:05:00 AM 28.0873 110.9922 69° East  Level Estimated
Tue 09:06:00 AM 28.1277 111.1140 69° East  Level Estimated
Tue 09:07:00 AM 28.1680 111.2358 69° East  Level Estimated
Tue 09:08:00 AM 28.2082 111.3577 69° East  Level Estimated
Tue 09:09:00 AM 28.2483 111.4797 70° East  Level Estimated
Tue 09:10:00 AM 28.2883 111.6018 70° East  Level Estimated
Tue 09:11:00 AM 28.3281 111.7240 70° East  Level Estimated
Tue 09:12:00 AM 28.3679 111.8463 70° East  Level Estimated
Tue 09:13:00 AM 28.4075 111.9686 70° East  Level Estimated
Tue 09:14:00 AM 28.4471 112.0911 70° East  Level Estimated
Tue 09:15:00 AM 28.4865 112.2136 70° East  Level Estimated
Tue 09:16:00 AM 28.5258 112.3363 70° East  Level Estimated
Tue 09:17:00 AM 28.5650 112.4590 70° East  Level Estimated
Tue 09:18:00 AM 28.6041 112.5818 70° East  Level Estimated
Tue 09:19:00 AM 28.6431 112.7048 70° East  Level Estimated
Tue 09:20:00 AM 28.6820 112.8278 70° East  Level Estimated
Tue 09:21:00 AM 28.7207 112.9509 70° East  Level Estimated
Tue 09:22:00 AM 28.7594 113.0741 70° East  Level Estimated
Tue 09:23:00 AM 28.7979 113.1973 70° East  Level Estimated
Tue 09:24:00 AM 28.8363 113.3207 70° East  Level Estimated
Tue 09:25:00 AM 28.8746 113.4442 70° East  Level Estimated
Tue 09:26:00 AM 28.9128 113.5677 71° East  Level Estimated
Tue 09:27:00 AM 28.9509 113.6914 71° East  Level Estimated
Tue 09:28:00 AM 28.9889 113.8151 71° East  Level Estimated
Tue 09:29:00 AM 29.0268 113.9390 71° East  Level Estimated
Tue 09:30:00 AM 29.0645 114.0629 71° East  Level Estimated
Tue 09:31:00 AM 29.1022 114.1869 71° East  Level Estimated
Tue 09:32:00 AM 29.1397 114.3110 71° East  Level Estimated
Tue 09:33:00 AM 29.1771 114.4352 71° East  Level Estimated
Tue 09:34:00 AM 29.2144 114.5595 71° East  Level Estimated
Tue 09:35:00 AM 29.2516 114.6838 71° East  Level Estimated
Tue 09:36:00 AM 29.2886 114.8083 71° East  Level Estimated
Tue 09:37:00 AM 29.3256 114.9329 71° East  Level Estimated
Tue 09:38:00 AM 29.3624 115.0575 71° East  Level Estimated
Tue 09:39:00 AM 29.3991 115.1822 71° East  Level Estimated
Tue 09:40:00 AM 29.4357 115.3070 71° East  Level Estimated
Tue 09:41:00 AM 29.4722 115.4320 71° East  Level Estimated
Tue 09:42:00 AM 29.5086 115.5570 71° East  Level Estimated
Tue 09:43:00 AM 29.5448 115.6820 72° East  Level Estimated
Tue 09:44:00 AM 29.5809 115.8072 72° East  Level Estimated
Tue 09:45:00 AM 29.6169 115.9325 72° East  Level Estimated
Tue 09:46:00 AM 29.6528 116.0579 72° East  Level Estimated
Tue 09:47:00 AM 29.6886 116.1833 72° East  Level Estimated
Tue 09:48:00 AM 29.7243 116.3088 72° East  Level Estimated
Tue 09:49:00 AM 29.7598 116.4345 72° East  Level Estimated
Tue 09:50:00 AM 29.7952 116.5602 72° East  Level Estimated
Tue 09:51:00 AM 29.8305 116.6860 72° East  Level Estimated
Tue 09:52:00 AM 29.8657 116.8119 72° East  Level Estimated
Tue 09:53:00 AM 29.9008 116.9379 72° East  Level Estimated
Tue 09:54:00 AM 29.9357 117.0639 72° East  Level Estimated
Tue 09:55:00 AM 29.9705 117.1901 72° East  Level Estimated
Tue 09:56:00 AM 30.0052 117.3164 72° East  Level Estimated
Tue 09:57:00 AM 30.0398 117.4427 72° East  Level Estimated
Tue 09:58:00 AM 30.0743 117.5691 72° East  Level Estimated
Tue 09:59:00 AM 30.1086 117.6956 73° East  Level Estimated
Tue 10:00:00 AM 30.1428 117.8222 73° East  Level Estimated
Tue 10:01:00 AM 30.1769 117.9489 73° East  Level Estimated
Tue 10:02:00 AM 30.2109 118.0757 73° East  Level Estimated
Tue 10:03:00 AM 30.2448 118.2026 73° East  Level Estimated
Tue 10:04:00 AM 30.2785 118.3295 73° East  Level Estimated
Tue 10:05:00 AM 30.3121 118.4565 73° East  Level Estimated
Tue 10:06:00 AM 30.3456 118.5837 73° East  Level Estimated
Tue 10:07:00 AM 30.3790 118.7109 73° East  Level Estimated
Tue 10:08:00 AM 30.4122 118.8382 73° East  Level Estimated
Tue 10:09:00 AM 30.4453 118.9656 73° East  Level Estimated
Tue 10:10:00 AM 30.4783 119.0930 73° East  Level Estimated
Tue 10:11:00 AM 30.5112 119.2206 73° East  Level Estimated
Tue 10:12:00 AM 30.5439 119.3482 73° East  Level Estimated
Tue 10:13:00 AM 30.5765 119.4760 73° East  Level Estimated
Tue 10:14:00 AM 30.6091 119.6038 74° East  Level Estimated
Tue 10:15:00 AM 30.6414 119.7317 74° East  Level Estimated
Tue 10:16:00 AM 30.6737 119.8597 74° East  Level Estimated
Tue 10:17:00 AM 30.7058 119.9877 74° East  Level Estimated
Tue 10:18:00 AM 30.7378 120.1159 74° East  Level Estimated
Tue 10:19:00 AM 30.7696 120.2441 74° East  Level Estimated
Tue 10:20:00 AM 30.8014 120.3725 74° East  Level Estimated
Tue 10:21:00 AM 30.8330 120.5009 74° East  Level Estimated
Tue 10:22:00 AM 30.8645 120.6294 74° East  Level Estimated
Tue 10:23:00 AM 30.8959 120.7579 74° East  Level Estimated
Tue 10:24:00 AM 30.9271 120.8866 74° East  Level Estimated
Tue 10:25:00 AM 30.9582 121.0154 74° East  Level Estimated
Tue 10:26:00 AM 30.9892 121.1442 74° East  Level Estimated
Tue 10:27:00 AM 31.0200 121.2731 74° East  Level Estimated
Tue 10:28:00 AM 31.0508 121.4021 74° East  Level Estimated
Tue 10:29:00 AM 31.0814 121.5312 74° East  Level Estimated
Tue 10:30:00 AM 31.1118 121.6604 75° East  Level Estimated
Tue 10:31:00 AM 31.1422 121.7896 75° East  Level Estimated
Tue 10:32:00 AM 31.1428 121.7924 75° East  Level Estimated
Tue 10:33:00 AM 31.1428 121.7924 221° Southwest  Level Estimated
Tue 10:34:00 AM 31.1428 121.7924 221° Southwest  Level Estimated
Tue 10:35:00 AM 31.1428 121.7924 221° Southwest  Level Estimated
Tue 10:36:00 AM 31.1428 121.7924 221° Southwest  Level Estimated
Tue 10:37:00 AM 31.1428 121.7924 221° Southwest  Level Estimated
Tue 10:38:00 AM 31.1428 121.7924 221° Southwest  Level Estimated
Tue 10:39:00 AM 31.1428 121.7924 221° Southwest  Level Estimated
Tue 10:40:00 AM 31.1428 121.7924 221° Southwest  Level Estimated
Tue 10:41:00 AM 31.1428 121.7924 221° Southwest  Level Estimated
Tue 10:42:00 AM 31.1428 121.7924 221° Southwest  Level Estimated
Tue 10:43:00 AM 31.1428 121.7924 221° Southwest  Level Estimated
Tue 10:44:00 AM 31.1428 121.7924 221° Southwest  Level Estimated
Tue 10:45:00 AM 31.1428 121.7924 221° Southwest  Level Estimated
Tue 10:46:00 AM 31.1428 121.7924 221° Southwest  Level Estimated
Tue 10:47:00 AM 31.1428 121.7924 221° Southwest  Level Estimated

Login

Don't have an account? Register now (free) for customized features, flight alerts, and more!